createdAt,value
2018-11-23T00:00:17.172Z,100.00
2018-11-23T00:01:17.100Z,100.00
2018-11-23T00:02:17.326Z,100.00
2018-11-23T00:03:17.657Z,100.00
2018-11-23T00:04:18.032Z,100.00
2018-11-23T00:05:18.688Z,100.00
2018-11-23T00:06:19.025Z,100.00
2018-11-23T00:07:19.163Z,100.00
2018-11-23T00:08:19.401Z,100.00
2018-11-23T00:09:19.565Z,100.00
2018-11-23T00:10:19.831Z,100.00
2018-11-23T00:11:20.229Z,100.00
2018-11-23T00:12:20.375Z,100.00
2018-11-23T00:13:20.600Z,100.00
2018-11-23T00:14:20.803Z,100.00
2018-11-23T00:15:20.896Z,100.00
2018-11-23T00:17:20.967Z,100.00
2018-11-23T00:18:21.104Z,100.00
2018-11-23T00:19:21.164Z,100.00
2018-11-23T00:20:21.437Z,100.00
2018-11-23T00:21:21.469Z,100.00
2018-11-23T00:22:21.797Z,100.00
2018-11-23T00:23:22.852Z,100.00
2018-11-23T00:24:22.886Z,100.00
2018-11-23T00:25:22.799Z,100.00
2018-11-23T00:26:23.225Z,100.00
2018-11-23T00:27:23.340Z,100.00
2018-11-23T00:28:23.445Z,100.00
2018-11-23T00:29:23.530Z,100.00
2018-11-23T00:30:23.639Z,100.00
2018-11-23T00:31:23.955Z,100.00
2018-11-23T00:32:24.020Z,100.00
2018-11-23T00:33:24.200Z,100.00
2018-11-23T00:34:24.388Z,100.00
2018-11-23T00:35:24.380Z,100.00
2018-11-23T00:36:24.547Z,100.00
2018-11-23T00:37:24.821Z,100.00
2018-11-23T00:38:25.181Z,100.00
2018-11-23T00:39:25.615Z,100.00
2018-11-23T00:40:25.907Z,100.00
2018-11-23T00:41:26.399Z,100.00
2018-11-23T00:42:26.783Z,100.00
2018-11-23T00:43:27.218Z,100.00
2018-11-23T00:45:27.572Z,100.00
2018-11-23T00:46:27.980Z,100.00
2018-11-23T00:47:27.942Z,100.00
2018-11-23T00:48:28.219Z,100.00
2018-11-23T00:49:28.502Z,100.00
2018-11-23T00:50:28.874Z,100.00
2018-11-23T00:51:29.192Z,100.00
2018-11-23T00:52:29.465Z,100.00
2018-11-23T00:53:29.737Z,100.00
2018-11-23T00:54:30.021Z,100.00
2018-11-23T00:55:30.312Z,100.00
2018-11-23T00:56:30.582Z,100.00
2018-11-23T00:57:30.840Z,100.00
2018-11-23T00:58:31.140Z,100.00
2018-11-23T00:59:31.420Z,100.00
2018-11-23T01:00:31.757Z,100.00
2018-11-23T01:01:32.061Z,100.00
2018-11-23T01:02:32.548Z,100.00
2018-11-23T01:03:32.868Z,100.00
2018-11-23T01:04:33.432Z,100.00
2018-11-23T01:05:34.051Z,100.00
2018-11-23T01:06:34.211Z,100.00
2018-11-23T01:07:34.313Z,100.00
2018-11-23T01:08:34.465Z,100.00
2018-11-23T01:09:34.582Z,100.00
2018-11-23T01:10:34.711Z,100.00
2018-11-23T01:11:34.863Z,100.00
2018-11-23T01:12:35.007Z,100.00
2018-11-23T01:13:35.160Z,100.00
2018-11-23T01:14:35.303Z,100.00
2018-11-23T01:15:35.438Z,100.00
2018-11-23T01:16:35.569Z,100.00
2018-11-23T01:17:35.972Z,100.00
2018-11-23T01:20:36.166Z,100.00
2018-11-23T01:21:36.224Z,100.00
2018-11-23T01:22:36.372Z,100.00
2018-11-23T01:23:36.326Z,100.00
2018-11-23T01:24:36.408Z,100.00
2018-11-23T01:25:36.450Z,100.00
2018-11-23T01:26:36.529Z,100.00
2018-11-23T01:27:36.611Z,100.00
2018-11-23T01:28:36.358Z,100.00
2018-11-23T01:29:36.949Z,100.00
2018-11-23T01:30:37.057Z,100.00
2018-11-23T01:31:37.133Z,100.00
2018-11-23T01:32:37.236Z,100.00
2018-11-23T01:33:37.307Z,100.00
2018-11-23T01:34:37.375Z,100.00
2018-11-23T01:35:37.470Z,100.00
2018-11-23T01:36:37.554Z,100.00
2018-11-23T01:37:37.642Z,100.00
2018-11-23T01:38:37.745Z,100.00
2018-11-23T01:39:37.800Z,100.00
2018-11-23T01:40:38.785Z,100.00
2018-11-23T01:41:37.982Z,100.00
2018-11-23T01:42:38.420Z,100.00
2018-11-23T01:43:38.505Z,100.00
2018-11-23T01:44:38.610Z,100.00
2018-11-23T01:45:38.872Z,100.00
2018-11-23T01:46:38.853Z,100.00
2018-11-23T01:47:39.111Z,100.00
2018-11-23T01:48:39.761Z,100.00
2018-11-23T01:49:39.526Z,100.00
2018-11-23T01:50:39.826Z,100.00
2018-11-23T01:51:40.106Z,100.00
2018-11-23T01:52:40.376Z,100.00
2018-11-23T01:53:40.568Z,100.00
2018-11-23T01:54:40.846Z,100.00
2018-11-23T01:55:41.215Z,100.00
2018-11-23T01:56:41.475Z,100.00
2018-11-23T01:57:41.759Z,100.00
2018-11-23T01:58:41.891Z,100.00
2018-11-23T02:00:42.184Z,100.00
2018-11-23T02:01:42.435Z,100.00
2018-11-23T02:02:42.695Z,100.00
2018-11-23T02:03:43.026Z,100.00
2018-11-23T02:04:43.322Z,100.00
2018-11-23T02:05:43.604Z,100.00
2018-11-23T02:06:43.852Z,100.00
2018-11-23T02:07:44.322Z,100.00
2018-11-23T02:08:44.605Z,100.00
2018-11-23T02:09:44.877Z,100.00
2018-11-23T02:10:45.176Z,100.00
2018-11-23T02:11:45.445Z,100.00
2018-11-23T02:12:45.696Z,100.00
2018-11-23T02:13:45.981Z,100.00
2018-11-23T02:14:46.236Z,100.00
2018-11-23T02:15:46.511Z,100.00
2018-11-23T02:16:46.758Z,100.00
2018-11-23T02:17:47.007Z,100.00
2018-11-23T02:18:47.256Z,100.00
2018-11-23T02:19:47.578Z,100.00
2018-11-23T02:20:48.179Z,100.00
2018-11-23T02:21:48.774Z,100.00
2018-11-23T02:22:49.191Z,100.00
2018-11-23T02:23:49.314Z,100.00
2018-11-23T02:24:49.409Z,100.00
2018-11-23T02:25:49.836Z,100.00
2018-11-23T02:26:49.943Z,100.00
2018-11-23T02:27:50.044Z,100.00
2018-11-23T02:28:50.150Z,100.00
2018-11-23T02:29:50.290Z,100.00
2018-11-23T02:30:50.475Z,100.00
2018-11-23T02:31:50.806Z,100.00
2018-11-23T02:32:50.997Z,100.00
2018-11-23T02:33:51.057Z,100.00
2018-11-23T02:34:51.108Z,100.00
2018-11-23T02:35:51.180Z,100.00
2018-11-23T02:36:51.231Z,100.00
2018-11-23T02:37:51.334Z,100.00
2018-11-23T02:38:51.368Z,100.00
2018-11-23T02:39:51.486Z,100.00
2018-11-23T02:40:51.524Z,100.00
2018-11-23T02:41:51.594Z,100.00
2018-11-23T02:42:51.755Z,100.00
2018-11-23T02:44:51.862Z,100.00
2018-11-23T02:45:51.604Z,100.00
2018-11-23T02:46:55.899Z,100.00
2018-11-23T02:47:52.870Z,100.00
2018-11-23T02:48:52.638Z,100.00
2018-11-23T02:49:52.681Z,100.00
2018-11-23T02:50:52.751Z,100.00
2018-11-23T02:51:52.795Z,100.00
2018-11-23T02:52:52.860Z,100.00
2018-11-23T02:53:52.926Z,100.00
2018-11-23T02:54:52.970Z,100.00
2018-11-23T02:55:53.042Z,100.00
2018-11-23T02:57:53.100Z,100.00
2018-11-23T02:58:53.181Z,100.00
2018-11-23T02:59:53.263Z,100.00
2018-11-23T03:00:53.427Z,100.00
2018-11-23T03:01:53.493Z,100.00
2018-11-23T03:02:53.548Z,100.00
2018-11-23T03:03:53.609Z,100.00
2018-11-23T03:04:53.650Z,100.00
2018-11-23T03:05:53.783Z,100.00
2018-11-23T03:06:53.868Z,100.00
2018-11-23T03:07:53.943Z,100.00
2018-11-23T03:08:53.896Z,100.00
2018-11-23T03:09:54.589Z,100.00
2018-11-23T03:10:54.533Z,100.00
2018-11-23T03:11:54.795Z,100.00
2018-11-23T03:12:55.068Z,100.00
2018-11-23T03:13:55.337Z,100.00
2018-11-23T03:14:55.599Z,100.00
2018-11-23T03:15:55.873Z,100.00
2018-11-23T03:16:56.124Z,100.00
2018-11-23T03:17:56.379Z,100.00
2018-11-23T03:18:56.630Z,100.00
2018-11-23T03:19:56.959Z,100.00
2018-11-23T03:20:57.380Z,100.00
2018-11-23T03:21:57.630Z,100.00
2018-11-23T03:22:57.889Z,100.00
2018-11-23T03:23:58.147Z,100.00
2018-11-23T03:24:58.388Z,100.00
2018-11-23T03:25:58.828Z,100.00
2018-11-23T03:26:59.098Z,100.00
2018-11-23T03:27:59.355Z,100.00
2018-11-23T03:29:59.624Z,100.00
2018-11-23T03:30:59.907Z,100.00
2018-11-23T03:32:00.158Z,100.00
2018-11-23T03:33:00.399Z,100.00
2018-11-23T03:34:00.761Z,100.00
2018-11-23T03:35:01.035Z,100.00
2018-11-23T03:36:01.291Z,100.00
2018-11-23T03:37:01.583Z,100.00
2018-11-23T03:38:02.163Z,100.00
2018-11-23T03:39:02.191Z,100.00
2018-11-23T03:40:02.300Z,100.00
2018-11-23T03:41:02.266Z,100.00
2018-11-23T03:42:02.545Z,100.00
2018-11-23T03:43:02.619Z,100.00
2018-11-23T03:44:02.682Z,100.00
2018-11-23T03:45:02.427Z,100.00
2018-11-23T03:46:02.876Z,100.00
2018-11-23T03:47:03.358Z,100.00
2018-11-23T03:48:03.979Z,100.00
2018-11-23T03:49:04.088Z,100.00
2018-11-23T03:50:04.251Z,100.00
2018-11-23T03:51:04.214Z,100.00
2018-11-23T03:52:04.487Z,100.00
2018-11-23T03:53:04.620Z,100.00
2018-11-23T03:55:04.672Z,100.00
2018-11-23T03:56:04.858Z,100.00
2018-11-23T03:57:05.178Z,100.00
2018-11-23T03:58:05.309Z,100.00
2018-11-23T03:59:05.444Z,100.00
2018-11-23T04:00:05.590Z,100.00
2018-11-23T04:01:06.006Z,100.00
2018-11-23T04:02:06.180Z,100.00
2018-11-23T04:03:06.230Z,100.00
2018-11-23T04:04:06.281Z,100.00
2018-11-23T04:05:06.350Z,100.00
2018-11-23T04:06:06.498Z,100.00
2018-11-23T04:07:06.586Z,100.00
2018-11-23T04:08:06.757Z,100.00
2018-11-23T04:09:06.879Z,100.00
2018-11-23T04:10:07.196Z,100.00
2018-11-23T04:11:07.612Z,100.00
2018-11-23T04:12:07.679Z,100.00
2018-11-23T04:13:07.742Z,100.00
2018-11-23T04:14:07.815Z,100.00
2018-11-23T04:15:07.876Z,100.00
2018-11-23T04:16:07.745Z,100.00
2018-11-23T04:17:08.319Z,100.00
2018-11-23T04:18:08.252Z,100.00
2018-11-23T04:19:08.501Z,100.00
2018-11-23T04:20:08.914Z,100.00
2018-11-23T04:21:09.009Z,100.00
2018-11-23T04:22:09.465Z,100.00
2018-11-23T04:23:09.735Z,100.00
2018-11-23T04:24:10.239Z,100.00
2018-11-23T04:25:10.435Z,100.00
2018-11-23T04:26:10.885Z,100.00
2018-11-23T04:27:11.211Z,100.00
2018-11-23T04:28:11.488Z,100.00
2018-11-23T04:29:11.744Z,100.00
2018-11-23T04:30:12.282Z,100.00
2018-11-23T04:31:12.122Z,100.00
2018-11-23T04:32:12.396Z,100.00
2018-11-23T04:33:12.759Z,100.00
2018-11-23T04:34:13.100Z,100.00
2018-11-23T04:35:13.543Z,100.00
2018-11-23T04:36:13.471Z,100.00
2018-11-23T04:37:13.761Z,100.00
2018-11-23T04:38:14.023Z,100.00
2018-11-23T04:39:14.278Z,100.00
2018-11-23T04:40:14.742Z,100.00
2018-11-23T04:41:15.019Z,100.00
2018-11-23T04:42:15.512Z,100.00
2018-11-23T04:43:15.794Z,100.00
2018-11-23T04:44:16.050Z,100.00
2018-11-23T04:45:16.490Z,100.00
2018-11-23T04:46:16.787Z,100.00
2018-11-23T04:47:17.030Z,100.00
2018-11-23T04:48:17.311Z,100.00
2018-11-23T04:49:17.586Z,100.00
2018-11-23T04:50:17.866Z,100.00
2018-11-23T04:51:18.426Z,100.00
2018-11-23T04:52:18.497Z,100.00
2018-11-23T04:53:18.563Z,100.00
2018-11-23T04:54:18.659Z,100.00
2018-11-23T04:55:18.783Z,100.00
2018-11-23T04:56:18.907Z,100.00
2018-11-23T04:57:19.045Z,100.00
2018-11-23T04:58:19.169Z,100.00
2018-11-23T04:59:19.267Z,100.00
2018-11-23T05:00:19.359Z,100.00
2018-11-23T05:01:19.473Z,100.00
2018-11-23T05:02:19.695Z,100.00
2018-11-23T05:03:19.817Z,100.00
2018-11-23T05:04:19.943Z,100.00
2018-11-23T05:05:20.052Z,100.00
2018-11-23T05:06:20.214Z,100.00
2018-11-23T05:07:20.319Z,100.00
2018-11-23T05:08:20.678Z,100.00
2018-11-23T05:09:20.830Z,100.00
2018-11-23T05:10:20.975Z,100.00
2018-11-23T05:11:21.047Z,100.00
2018-11-23T05:12:21.169Z,100.00
2018-11-23T05:13:21.255Z,100.00
2018-11-23T05:14:21.370Z,100.00
2018-11-23T05:15:21.996Z,100.00
2018-11-23T05:16:21.589Z,100.00
2018-11-23T05:17:21.684Z,100.00
2018-11-23T05:18:21.758Z,100.00
2018-11-23T05:19:21.888Z,100.00
2018-11-23T05:20:22.044Z,100.00
2018-11-23T05:21:22.139Z,100.00
2018-11-23T05:22:22.260Z,100.00
2018-11-23T05:23:22.389Z,100.00
2018-11-23T05:24:22.453Z,100.00
2018-11-23T05:25:22.518Z,100.00
2018-11-23T05:26:22.593Z,100.00
2018-11-23T05:27:22.656Z,100.00
2018-11-23T05:28:22.712Z,100.00
2018-11-23T05:29:22.759Z,100.00
2018-11-23T05:30:22.824Z,100.00
2018-11-23T05:31:22.875Z,100.00
2018-11-23T05:32:22.964Z,100.00
2018-11-23T05:33:23.036Z,100.00
2018-11-23T05:34:23.118Z,100.00
2018-11-23T05:35:23.188Z,100.00
2018-11-23T05:36:23.267Z,100.00
2018-11-23T05:37:23.360Z,100.00
2018-11-23T05:38:23.438Z,100.00
2018-11-23T05:39:23.515Z,100.00
2018-11-23T05:40:23.589Z,100.00
2018-11-23T05:41:23.698Z,100.00
2018-11-23T05:42:23.814Z,100.00
2018-11-23T05:43:23.903Z,100.00
2018-11-23T05:44:23.879Z,100.00
2018-11-23T05:45:24.214Z,100.00
2018-11-23T05:46:24.621Z,100.00
2018-11-23T05:47:24.901Z,100.00
2018-11-23T05:48:26.943Z,100.00
2018-11-23T05:49:25.308Z,100.00
2018-11-23T05:50:25.783Z,100.00
2018-11-23T05:51:26.273Z,100.00
2018-11-23T05:52:26.047Z,100.00
2018-11-23T05:53:26.325Z,100.00
2018-11-23T05:54:26.600Z,100.00
2018-11-23T05:55:26.869Z,100.00
2018-11-23T05:56:27.027Z,100.00
2018-11-23T05:57:27.498Z,100.00
2018-11-23T05:58:27.775Z,100.00
2018-11-23T05:59:28.058Z,100.00
2018-11-23T06:00:28.355Z,100.00
2018-11-23T06:01:28.577Z,100.00
2018-11-23T06:02:28.880Z,100.00
2018-11-23T06:03:29.156Z,100.00
2018-11-23T06:04:29.519Z,100.00
2018-11-23T06:05:29.942Z,100.00
2018-11-23T06:06:30.220Z,100.00
2018-11-23T06:07:30.570Z,100.00
2018-11-23T06:08:30.832Z,100.00
2018-11-23T06:09:31.098Z,100.00
2018-11-23T06:10:31.387Z,100.00
2018-11-23T06:11:31.827Z,100.00
2018-11-23T06:12:32.128Z,100.00
2018-11-23T06:13:32.408Z,100.00
2018-11-23T06:14:32.734Z,100.00
2018-11-23T06:15:33.160Z,100.00
2018-11-23T06:16:33.772Z,100.00
2018-11-23T06:17:33.955Z,100.00
2018-11-23T06:18:34.071Z,100.00
2018-11-23T06:19:34.178Z,100.00
2018-11-23T06:20:34.277Z,100.00
2018-11-23T06:21:34.372Z,100.00
2018-11-23T06:22:34.482Z,100.00
2018-11-23T06:23:34.630Z,100.00
2018-11-23T06:25:34.780Z,100.00
2018-11-23T06:27:35.163Z,100.00
2018-11-23T06:28:35.400Z,100.00
2018-11-23T06:29:35.541Z,100.00
2018-11-23T06:30:36.185Z,100.00
2018-11-23T06:31:35.975Z,100.00
2018-11-23T06:32:36.111Z,100.00
2018-11-23T06:33:36.471Z,100.00
2018-11-23T06:34:38.313Z,100.00
2018-11-23T06:35:36.986Z,100.00
2018-11-23T06:36:37.316Z,100.00
2018-11-23T06:37:37.233Z,100.00
2018-11-23T06:38:37.482Z,100.00
2018-11-23T06:39:37.568Z,100.00
2018-11-23T06:40:37.631Z,100.00
2018-11-23T06:41:37.792Z,100.00
2018-11-23T06:42:42.152Z,100.00
2018-11-23T06:43:38.216Z,100.00
2018-11-23T06:44:38.291Z,100.00
2018-11-23T06:45:38.367Z,100.00
2018-11-23T06:46:38.783Z,100.00
2018-11-23T06:48:38.876Z,100.00
2018-11-23T06:49:38.881Z,100.00
2018-11-23T06:51:38.890Z,100.00
2018-11-23T06:52:39.165Z,100.00
2018-11-23T06:53:39.171Z,100.00
2018-11-23T06:54:39.434Z,100.00
2018-11-23T06:55:39.710Z,100.00
2018-11-23T06:56:39.966Z,100.00
2018-11-23T06:57:40.376Z,100.00
2018-11-23T06:58:40.458Z,100.00
2018-11-23T06:59:40.720Z,100.00
2018-11-23T07:00:41.188Z,100.00
2018-11-23T07:01:41.755Z,100.00
2018-11-23T07:02:41.686Z,100.00
2018-11-23T07:03:41.656Z,100.00
2018-11-23T07:04:41.920Z,100.00
2018-11-23T07:05:42.189Z,100.00
2018-11-23T07:06:42.651Z,100.00
2018-11-23T07:07:42.929Z,100.00
2018-11-23T07:08:43.230Z,100.00
2018-11-23T07:09:43.746Z,100.00
2018-11-23T07:10:43.563Z,100.00
2018-11-23T07:11:43.913Z,100.00
2018-11-23T07:12:44.210Z,100.00
2018-11-23T07:13:44.477Z,100.00
2018-11-23T07:14:44.862Z,100.00
2018-11-23T07:15:45.190Z,100.00
2018-11-23T07:16:45.441Z,100.00
2018-11-23T07:17:45.756Z,100.00
2018-11-23T07:18:46.033Z,100.00
2018-11-23T07:19:46.284Z,100.00
2018-11-23T07:20:46.789Z,100.00
2018-11-23T07:21:47.160Z,100.00
2018-11-23T07:22:47.437Z,100.00
2018-11-23T07:23:47.706Z,100.00
2018-11-23T07:24:48.061Z,100.00
2018-11-23T07:25:48.677Z,100.00
2018-11-23T07:26:48.753Z,100.00
2018-11-23T07:27:48.831Z,100.00
2018-11-23T07:28:48.967Z,100.00
2018-11-23T07:29:49.062Z,100.00
2018-11-23T07:30:49.148Z,100.00
2018-11-23T07:31:49.266Z,100.00
2018-11-23T07:32:49.373Z,100.00
2018-11-23T07:33:49.470Z,100.00
2018-11-23T07:34:49.571Z,100.00
2018-11-23T07:35:49.734Z,100.00
2018-11-23T07:36:49.888Z,100.00
2018-11-23T07:37:50.011Z,100.00
2018-11-23T07:38:50.165Z,100.00
2018-11-23T07:39:50.263Z,100.00
2018-11-23T07:40:50.686Z,100.00
2018-11-23T07:41:50.833Z,100.00
2018-11-23T07:42:51.171Z,100.00
2018-11-23T07:43:51.633Z,100.00
2018-11-23T07:44:51.727Z,100.00
2018-11-23T07:45:51.829Z,100.00
2018-11-23T07:46:51.942Z,100.00
2018-11-23T07:47:52.116Z,100.00
2018-11-23T07:48:52.204Z,100.00
2018-11-23T07:49:52.240Z,100.00
2018-11-23T07:50:52.290Z,100.00
2018-11-23T07:51:52.356Z,100.00
2018-11-23T07:52:52.429Z,100.00
2018-11-23T07:53:52.595Z,100.00
2018-11-23T07:54:52.722Z,100.00
2018-11-23T07:55:52.784Z,100.00
2018-11-23T07:56:52.825Z,100.00
2018-11-23T07:57:52.895Z,100.00
2018-11-23T07:58:52.957Z,100.00
2018-11-23T07:59:53.034Z,100.00
2018-11-23T08:00:53.098Z,100.00
2018-11-23T08:01:53.169Z,100.00
2018-11-23T08:02:53.248Z,100.00
2018-11-23T08:03:53.311Z,100.00
2018-11-23T08:04:53.381Z,100.00
2018-11-23T08:05:53.464Z,100.00
2018-11-23T08:06:53.549Z,100.00
2018-11-23T08:07:53.606Z,100.00
2018-11-23T08:08:53.684Z,100.00
2018-11-23T08:09:53.760Z,100.00
2018-11-23T08:10:53.791Z,100.00
2018-11-23T08:11:53.933Z,100.00
2018-11-23T08:12:54.410Z,100.00
2018-11-23T08:13:54.691Z,100.00
2018-11-23T08:14:55.002Z,100.00
2018-11-23T08:15:55.269Z,100.00
2018-11-23T08:16:55.531Z,100.00
2018-11-23T08:17:55.772Z,100.00
2018-11-23T08:18:56.084Z,100.00
2018-11-23T08:19:56.355Z,100.00
2018-11-23T08:20:56.612Z,100.00
2018-11-23T08:21:57.025Z,100.00
2018-11-23T08:22:57.340Z,100.00
2018-11-23T08:23:57.611Z,100.00
2018-11-23T08:24:57.877Z,100.00
2018-11-23T08:25:58.130Z,100.00
2018-11-23T08:26:58.442Z,100.00
2018-11-23T08:27:58.710Z,100.00
2018-11-23T08:28:58.982Z,100.00
2018-11-23T08:29:59.273Z,100.00
2018-11-23T08:30:59.592Z,100.00
2018-11-23T08:31:59.914Z,100.00
2018-11-23T08:33:00.232Z,100.00
2018-11-23T08:34:00.577Z,100.00
2018-11-23T08:35:00.993Z,100.00
2018-11-23T08:36:01.045Z,100.00
2018-11-23T08:37:01.315Z,100.00
2018-11-23T08:38:01.694Z,100.00
2018-11-23T08:39:04.774Z,100.00
2018-11-23T08:41:03.090Z,100.00
2018-11-23T08:42:03.142Z,100.00
2018-11-23T08:43:03.270Z,100.00
2018-11-23T08:44:03.220Z,100.00
2018-11-23T08:45:03.914Z,100.00
2018-11-23T08:46:04.174Z,100.00
2018-11-23T08:47:04.346Z,100.00
2018-11-23T08:48:04.527Z,100.00
2018-11-23T08:49:04.599Z,100.00
2018-11-23T08:50:04.748Z,100.00
2018-11-23T08:51:05.061Z,100.00
2018-11-23T08:52:05.259Z,100.00
2018-11-23T08:53:05.487Z,100.00
2018-11-23T08:54:05.651Z,100.00
2018-11-23T08:55:05.801Z,100.00
2018-11-23T08:56:06.313Z,100.00
2018-11-23T08:57:06.437Z,99.97
2018-11-23T08:58:06.634Z,100.00
2018-11-23T08:59:06.739Z,100.00
2018-11-23T09:00:06.880Z,99.41
2018-11-23T09:01:07.113Z,97.58
2018-11-23T09:02:07.241Z,94.95
2018-11-23T09:03:07.325Z,94.50
2018-11-23T09:04:07.409Z,94.22
2018-11-23T09:05:07.730Z,94.03
2018-11-23T09:06:07.821Z,94.91
2018-11-23T09:07:07.887Z,95.34
2018-11-23T09:08:07.965Z,96.84
2018-11-23T09:09:07.799Z,98.04
2018-11-23T09:10:08.504Z,99.38
2018-11-23T09:11:08.955Z,98.02
2018-11-23T09:12:09.134Z,97.95
2018-11-23T09:13:09.147Z,99.04
2018-11-23T09:14:09.334Z,99.26
2018-11-23T09:15:09.383Z,99.04
2018-11-23T09:17:09.268Z,99.85
2018-11-23T09:18:09.548Z,100.00
2018-11-23T09:19:09.799Z,100.00
2018-11-23T09:21:10.170Z,99.08
2018-11-23T09:22:10.775Z,98.92
2018-11-23T09:23:10.574Z,99.28
2018-11-23T09:24:10.913Z,99.50
2018-11-23T09:25:11.183Z,99.46
2018-11-23T09:26:11.219Z,98.22
2018-11-23T09:27:11.570Z,95.76
2018-11-23T09:28:11.848Z,98.26
2018-11-23T09:29:12.207Z,97.76
2018-11-23T09:30:12.736Z,96.39
2018-11-23T09:31:12.859Z,93.48
2018-11-23T09:32:13.138Z,95.41
2018-11-23T09:33:13.407Z,95.04
2018-11-23T09:34:13.685Z,94.61
2018-11-23T09:35:14.320Z,95.15
2018-11-23T09:36:14.126Z,94.75
2018-11-23T09:37:14.670Z,95.49
2018-11-23T09:38:14.448Z,96.21
2018-11-23T09:39:14.896Z,95.85
2018-11-23T09:40:15.553Z,97.22
2018-11-23T09:41:15.258Z,97.07
2018-11-23T09:42:15.533Z,96.57
2018-11-23T09:43:15.853Z,95.69
2018-11-23T09:44:16.122Z,93.88
2018-11-23T09:45:16.721Z,92.66
2018-11-23T09:46:16.615Z,90.61
2018-11-23T09:47:16.900Z,89.89
2018-11-23T09:48:17.417Z,89.71
2018-11-23T09:49:17.706Z,86.07
2018-11-23T09:50:18.155Z,86.77
2018-11-23T09:51:18.446Z,87.27
2018-11-23T09:52:18.458Z,88.62
2018-11-23T09:53:18.562Z,90.04
2018-11-23T09:54:18.680Z,91.20
2018-11-23T09:55:18.791Z,91.35
2018-11-23T09:56:19.073Z,89.76
2018-11-23T09:57:19.400Z,89.87
2018-11-23T09:58:19.533Z,88.60
2018-11-23T09:59:19.780Z,87.38
2018-11-23T10:00:19.904Z,87.42
2018-11-23T10:01:20.298Z,87.44
2018-11-23T10:02:20.484Z,87.65
2018-11-23T10:03:20.650Z,86.58
2018-11-23T10:04:20.794Z,86.87
2018-11-23T10:05:21.000Z,86.65
2018-11-23T10:06:21.137Z,86.23
2018-11-23T10:07:21.226Z,85.55
2018-11-23T10:08:21.565Z,84.67
2018-11-23T10:09:21.673Z,84.13
2018-11-23T10:10:21.733Z,84.86
2018-11-23T10:11:22.039Z,85.47
2018-11-23T10:12:22.309Z,87.43
2018-11-23T10:13:22.403Z,86.52
2018-11-23T10:14:22.549Z,86.92
2018-11-23T10:15:22.615Z,86.39
2018-11-23T10:16:23.040Z,85.72
2018-11-23T10:17:23.123Z,86.21
2018-11-23T10:18:23.203Z,84.49
2018-11-23T10:19:23.278Z,84.85
2018-11-23T10:20:23.620Z,84.08
2018-11-23T10:21:23.922Z,84.13
2018-11-23T10:22:24.320Z,83.97
2018-11-23T10:23:24.786Z,83.54
2018-11-23T10:24:25.003Z,83.13
2018-11-23T10:25:25.271Z,83.24
2018-11-23T10:26:25.488Z,84.18
2018-11-23T10:27:25.804Z,85.11
2018-11-23T10:28:26.105Z,85.30
2018-11-23T10:29:26.368Z,86.02
2018-11-23T10:30:26.668Z,86.26
2018-11-23T10:31:27.115Z,85.77
2018-11-23T10:32:27.475Z,85.54
2018-11-23T10:33:28.412Z,85.81
2018-11-23T10:34:28.241Z,85.56
2018-11-23T10:35:28.532Z,85.77
2018-11-23T10:36:28.919Z,84.77
2018-11-23T10:37:29.204Z,84.93
2018-11-23T10:38:29.489Z,83.60
2018-11-23T10:39:29.808Z,83.74
2018-11-23T10:40:30.085Z,83.87
2018-11-23T10:41:30.766Z,83.61
2018-11-23T10:42:36.906Z,83.47
2018-11-23T10:43:30.842Z,84.02
2018-11-23T10:44:31.222Z,84.13
2018-11-23T10:45:31.497Z,84.53
2018-11-23T10:46:32.105Z,83.64
2018-11-23T10:47:32.399Z,83.51
2018-11-23T10:48:32.713Z,83.19
2018-11-23T10:49:33.133Z,84.22
2018-11-23T10:50:33.799Z,84.33
2018-11-23T10:51:34.016Z,84.26
2018-11-23T10:52:34.276Z,84.54
2018-11-23T10:53:34.461Z,84.78
2018-11-23T10:54:34.688Z,85.03
2018-11-23T10:55:34.844Z,85.45
2018-11-23T10:56:35.296Z,85.51
2018-11-23T10:58:35.455Z,84.75
2018-11-23T10:59:35.652Z,84.95
2018-11-23T11:00:35.831Z,84.99
2018-11-23T11:01:36.245Z,85.00
2018-11-23T11:02:36.468Z,85.29
2018-11-23T11:03:36.686Z,85.23
2018-11-23T11:04:36.991Z,85.21
2018-11-23T11:05:37.389Z,85.18
2018-11-23T11:06:37.613Z,84.94
2018-11-23T11:07:38.075Z,84.83
2018-11-23T11:08:38.093Z,84.95
2018-11-23T11:09:38.469Z,85.13
2018-11-23T11:10:38.570Z,84.71
2018-11-23T11:11:38.642Z,84.71
2018-11-23T11:12:38.801Z,84.60
2018-11-23T11:13:38.916Z,84.27
2018-11-23T11:14:38.895Z,84.01
2018-11-23T11:15:39.633Z,83.91
2018-11-23T11:16:39.442Z,83.80
2018-11-23T11:17:39.721Z,83.70
2018-11-23T11:18:40.029Z,84.07
2018-11-23T11:19:40.310Z,84.05
2018-11-23T11:20:40.608Z,83.92
2018-11-23T11:21:41.022Z,83.25
2018-11-23T11:22:41.338Z,83.73
2018-11-23T11:23:41.655Z,83.14
2018-11-23T11:24:42.097Z,83.38
2018-11-23T11:25:42.411Z,83.43
2018-11-23T11:26:42.717Z,83.03
2018-11-23T11:27:43.001Z,82.74
2018-11-23T11:28:43.325Z,82.53
2018-11-23T11:29:43.614Z,82.21
2018-11-23T11:30:43.914Z,81.30
2018-11-23T11:31:44.309Z,79.69
2018-11-23T11:32:44.640Z,79.71
2018-11-23T11:33:45.030Z,79.80
2018-11-23T11:34:45.332Z,80.21
2018-11-23T11:35:45.820Z,79.98
2018-11-23T11:36:46.110Z,79.71
2018-11-23T11:37:46.398Z,79.84
2018-11-23T11:38:46.715Z,80.22
2018-11-23T11:39:47.013Z,80.20
2018-11-23T11:40:47.308Z,80.75
2018-11-23T11:41:47.686Z,80.33
2018-11-23T11:42:47.995Z,80.13
2018-11-23T11:43:48.725Z,79.74
2018-11-23T11:44:48.840Z,79.30
2018-11-23T11:45:48.916Z,79.59
2018-11-23T11:46:49.053Z,79.97
2018-11-23T11:47:49.484Z,80.63
2018-11-23T11:48:49.615Z,80.57
2018-11-23T11:49:49.784Z,80.87
2018-11-23T11:50:49.822Z,80.49
2018-11-23T11:51:50.000Z,80.22
2018-11-23T11:52:50.176Z,80.49
2018-11-23T11:53:50.333Z,80.48
2018-11-23T11:54:50.464Z,80.13
2018-11-23T11:55:50.622Z,80.28
2018-11-23T11:57:50.791Z,80.26
2018-11-23T11:58:50.927Z,79.33
2018-11-23T11:59:51.104Z,79.79
2018-11-23T12:00:51.232Z,79.62
2018-11-23T12:01:51.308Z,79.05
2018-11-23T12:02:51.356Z,79.42
2018-11-23T12:03:51.761Z,78.62
2018-11-23T12:04:51.996Z,78.66
2018-11-23T12:05:52.127Z,78.56
2018-11-23T12:06:51.872Z,78.28
2018-11-23T12:07:52.447Z,77.99
2018-11-23T12:08:52.509Z,77.91
2018-11-23T12:09:52.595Z,77.41
2018-11-23T12:10:52.684Z,76.76
2018-11-23T12:11:52.846Z,76.37
2018-11-23T12:12:52.922Z,75.92
2018-11-23T12:13:53.049Z,75.90
2018-11-23T12:14:53.186Z,75.31
2018-11-23T12:15:53.272Z,74.41
2018-11-23T12:16:53.379Z,74.82
2018-11-23T12:17:53.497Z,74.64
2018-11-23T12:18:53.588Z,73.90
2018-11-23T12:20:53.777Z,74.25
2018-11-23T12:21:53.870Z,72.37
2018-11-23T12:22:54.004Z,72.19
2018-11-23T12:23:54.014Z,72.49
2018-11-23T12:24:54.013Z,71.92
2018-11-23T12:25:54.020Z,70.65
2018-11-23T12:26:54.290Z,70.89
2018-11-23T12:27:54.752Z,71.20
2018-11-23T12:28:55.013Z,69.78
2018-11-23T12:29:55.317Z,69.90
2018-11-23T12:30:55.624Z,70.11
2018-11-23T12:31:55.914Z,69.55
2018-11-23T12:32:56.198Z,69.44
2018-11-23T12:33:56.512Z,69.14
2018-11-23T12:34:56.786Z,68.57
2018-11-23T12:35:57.094Z,68.63
2018-11-23T12:36:57.363Z,68.89
2018-11-23T12:37:57.652Z,67.98
2018-11-23T12:38:57.979Z,67.67
2018-11-23T12:39:58.244Z,67.79
2018-11-23T12:40:58.510Z,66.10
2018-11-23T12:41:59.002Z,66.78
2018-11-23T12:42:59.183Z,65.32
2018-11-23T12:43:59.665Z,65.52
2018-11-23T12:44:59.484Z,66.08
2018-11-23T12:45:59.754Z,65.26
2018-11-23T12:47:00.047Z,64.73
2018-11-23T12:48:00.291Z,63.97
2018-11-23T12:49:00.591Z,63.79
2018-11-23T12:50:00.874Z,64.11
2018-11-23T12:51:01.329Z,63.36
2018-11-23T12:52:01.678Z,64.21
2018-11-23T12:53:06.346Z,63.66
2018-11-23T12:54:02.428Z,63.96
2018-11-23T12:55:02.527Z,63.76
2018-11-23T12:56:02.708Z,63.51
2018-11-23T12:57:03.292Z,63.58